Time;durP1;ratioP1;P1;durP2;ratioP2;P2;SDS_P1;SDS_P2;PMS_P1;PMS_P2;Temp;Humidity;BMP_temperature;BMP_pressure;BME280_temperature;BME280_humidity;BME280_pressure;Samples;Min_cycle;Max_cycle;Signal;HPM_P1;HPM_P2
2022/06/17 00:01:44;;;;;;;1.92;1.80;;;;;;;12.52;50.89;101407.59;1703764;82;20153;-75
2022/06/17 00:04:12;;;;;;;5.05;2.20;;;;;;;12.45;50.43;101412.45;1717843;82;20909;-75
2022/06/17 00:06:49;;;;;;;1.90;1.65;;;;;;;12.40;50.49;101403.00;1713599;82;20920;-76
2022/06/17 00:09:19;;;;;;;1.00;0.85;;;;;;;12.35;50.56;101406.94;1727588;82;20961;-75
2022/06/17 00:11:46;;;;;;;2.60;1.30;;;;;;;12.29;50.64;101408.30;1695831;83;21419;-76
2022/06/17 00:14:21;;;;;;;1.15;0.98;;;;;;;12.23;50.72;101404.48;1729746;82;21354;-76
2022/06/17 00:16:48;;;;;;;3.33;1.75;;;;;;;12.18;50.80;101404.95;1719221;82;21513;-76
2022/06/17 00:19:18;;;;;;;1.67;1.30;;;;;;;12.13;50.84;101403.70;1707916;82;21117;-76
2022/06/17 00:21:52;;;;;;;1.77;1.07;;;;;;;12.09;50.93;101408.94;1736902;82;20919;-76
2022/06/17 00:24:33;;;;;;;1.62;1.50;;;;;;;12.05;50.99;101407.24;1740064;82;20966;-76
2022/06/17 00:27:01;;;;;;;1.67;1.10;;;;;;;12.00;51.07;101404.69;1739809;82;20923;-76
2022/06/17 00:29:29;;;;;;;1.98;0.98;;;;;;;11.95;51.08;101409.09;1740237;82;20895;-76
2022/06/17 00:31:59;;;;;;;1.30;0.90;;;;;;;11.90;51.22;101410.42;1737125;82;21043;-76
2022/06/17 00:34:26;;;;;;;2.22;1.05;;;;;;;11.86;51.25;101407.88;1740105;81;20915;-76
2022/06/17 00:36:57;;;;;;;3.62;1.17;;;;;;;11.82;51.32;101412.22;1740009;82;20974;-76
2022/06/17 00:39:29;;;;;;;1.15;0.98;;;;;;;11.75;51.38;101404.04;1740173;82;20923;-76
2022/06/17 00:42:03;;;;;;;2.20;1.32;;;;;;;11.71;51.44;101408.82;1734941;82;21032;-76
2022/06/17 00:44:36;;;;;;;4.55;1.30;;;;;;;11.66;51.52;101401.52;1709961;83;20899;-76
2022/06/17 00:47:16;;;;;;;1.87;1.17;;;;;;;11.61;51.55;101401.99;1731821;82;21439;-76
2022/06/17 00:49:53;;;;;;;1.40;1.22;;;;;;;11.57;51.68;101404.18;1738241;82;20963;-76
2022/06/17 00:52:45;;;;;;;4.00;1.55;;;;;;;11.52;51.73;101404.65;1740107;82;21427;-76
2022/06/17 00:55:26;;;;;;;1.55;1.30;;;;;;;11.45;51.85;101398.65;1733659;82;20907;-77
2022/06/17 00:57:53;;;;;;;1.47;1.32;;;;;;;11.40;51.90;101405.63;1740085;82;21408;-76
2022/06/17 01:00:24;;;;;;;5.67;1.42;;;;;;;11.37;52.03;101406.08;1736728;82;20951;-76
2022/06/17 01:02:59;;;;;;;1.87;1.10;;;;;;;11.34;52.11;101400.48;1722120;82;21514;-76
2022/06/17 01:05:30;;;;;;;1.75;1.27;;;;;;;11.30;52.22;101394.91;1729183;82;21470;-76
2022/06/17 01:08:04;;;;;;;3.10;1.55;;;;;;;11.28;52.28;101400.09;1710267;83;21483;-76
2022/06/17 01:10:32;;;;;;;2.67;1.12;;;;;;;11.24;52.33;101401.41;1728024;82;21495;-76
2022/06/17 01:13:05;;;;;;;1.62;1.50;;;;;;;11.22;52.43;101400.56;1740221;82;20906;-76
2022/06/17 01:15:35;;;;;;;1.57;1.37;;;;;;;11.19;52.49;101402.73;1720042;81;21534;-76
2022/06/17 01:18:02;;;;;;;1.95;1.52;;;;;;;11.16;52.60;101398.86;1730801;81;21407;-76
2022/06/17 01:20:33;;;;;;;2.85;1.45;;;;;;;11.13;52.64;101396.30;1751053;81;21506;-76
2022/06/17 01:23:06;;;;;;;2.47;1.90;;;;;;;11.11;52.73;101401.05;1750840;80;20899;-76
2022/06/17 01:25:41;;;;;;;1.87;1.35;;;;;;;11.05;52.75;101393.32;1751049;81;21510;-76
2022/06/17 01:28:12;;;;;;;2.17;1.27;;;;;;;10.99;52.83;101390.33;1748827;81;21523;-76
2022/06/17 01:30:50;;;;;;;2.55;1.27;;;;;;;10.94;52.87;101391.65;1750873;81;21482;-77
2022/06/17 01:33:25;;;;;;;2.52;1.10;;;;;;;10.91;52.96;101394.72;1750769;81;21404;-77
2022/06/17 01:35:59;;;;;;;;;;;;;;;10.87;53.03;101393.87;1756518;80;21502;-77
2022/06/17 01:38:28;;;;;;;2.33;1.27;;;;;;;10.84;53.70;101393.02;1748139;81;20118;-77
2022/06/17 01:40:58;;;;;;;1.77;1.30;;;;;;;10.79;53.14;101389.16;1745379;81;20899;-77
2022/06/17 01:43:46;;;;;;;1.12;1.00;;;;;;;10.77;53.20;101388.31;1750880;81;21403;-77
2022/06/17 01:46:16;;;;;;;0.90;0.90;;;;;;;10.72;53.27;101392.64;1750959;81;20999;-76
2022/06/17 01:48:57;;;;;;;1.80;1.20;;;;;;;10.67;53.31;101399.56;1750572;81;21434;-76
2022/06/17 01:51:27;;;;;;;3.15;1.00;;;;;;;10.64;53.33;101401.30;1742857;81;20954;-76
2022/06/17 01:53:57;;;;;;;1.90;1.37;;;;;;;10.59;53.40;101397.00;1750989;81;21350;-76
2022/06/17 01:56:28;;;;;;;1.30;1.20;;;;;;;10.58;53.45;101402.17;1750930;81;20902;-77
2022/06/17 01:59:14;;;;;;;1.45;1.20;;;;;;;10.55;53.51;101400.46;1729591;81;20913;-77
2022/06/17 02:01:44;;;;;;;1.42;1.20;;;;;;;10.50;53.61;101397.02;1750165;82;21343;-77
2022/06/17 02:04:15;;;;;;;3.83;1.77;;;;;;;10.49;53.69;101395.30;1750910;81;21352;-77
2022/06/17 02:07:02;;;;;;;1.85;1.20;;;;;;;10.46;53.74;101397.90;1750722;81;21403;-77
2022/06/17 02:09:28;;;;;;;;;;;;;;;10.45;53.85;101397.47;1753575;81;21423;-77
2022/06/17 02:11:55;;;;;;;1.55;1.20;;;;;;;10.44;54.56;101399.63;1750619;81;20174;-77
2022/06/17 02:14:23;;;;;;;1.57;1.20;;;;;;;10.43;53.98;101405.66;1750938;81;21403;-76
2022/06/17 02:16:54;;;;;;;1.90;1.17;;;;;;;10.43;54.04;101403.52;1750577;81;21447;-76
2022/06/17 02:19:24;;;;;;;1.80;1.50;;;;;;;10.42;54.08;101403.95;1750615;81;20985;-76
2022/06/17 02:21:55;;;;;;;2.20;1.37;;;;;;;10.41;54.14;101397.05;1751027;81;20899;-76
2022/06/17 02:24:23;;;;;;;2.55;1.30;;;;;;;10.43;54.28;101400.49;1748258;81;21524;-76
2022/06/17 02:26:50;;;;;;;3.72;1.22;;;;;;;10.43;54.30;101399.63;1729497;81;21419;-76
2022/06/17 02:29:19;;;;;;;1.45;1.27;;;;;;;10.42;54.35;101401.36;1750946;81;21419;-76
2022/06/17 02:31:46;;;;;;;2.80;1.40;;;;;;;10.43;54.45;101404.80;1751080;81;20895;-76
2022/06/17 02:34:16;;;;;;;1.80;0.95;;;;;;;10.41;54.46;101402.22;1750802;81;21442;-76
2022/06/17 02:37:03;;;;;;;1.10;1.00;;;;;;;10.41;54.51;101412.56;1749924;81;21005;-76
2022/06/17 02:39:33;;;;;;;1.52;1.17;;;;;;;10.39;54.54;101401.83;1750696;81;20911;-76
2022/06/17 02:41:59;;;;;;;1.45;1.35;;;;;;;10.35;54.59;101410.03;1751108;81;20953;-76
2022/06/17 02:44:33;;;;;;;1.20;1.10;;;;;;;10.31;54.72;101410.03;1750795;81;20887;-77
2022/06/17 02:47:09;;;;;;;2.62;1.20;;;;;;;10.28;54.81;101410.91;1750955;81;21442;-77
2022/06/17 02:49:37;;;;;;;2.50;1.40;;;;;;;10.26;54.82;101408.75;1749294;81;21021;-77
2022/06/17 02:52:08;;;;;;;2.17;1.45;;;;;;;10.24;54.90;101406.17;1748852;81;21093;-77
2022/06/17 02:54:46;;;;;;;4.35;1.80;;;;;;;10.22;54.98;101403.16;1747534;81;20998;-76
2022/06/17 02:57:21;;;;;;;1.50;1.37;;;;;;;10.20;55.04;101404.45;1747819;81;22322;-76
2022/06/17 02:59:58;;;;;;;2.00;1.20;;;;;;;10.20;55.14;101410.91;1748480;81;21053;-76
2022/06/17 03:02:35;;;;;;;2.25;1.37;;;;;;;10.21;55.17;101408.76;1748104;81;21061;-76
2022/06/17 03:05:02;;;;;;;1.40;1.30;;;;;;;10.22;55.25;101401.87;1748141;81;21067;-77
2022/06/17 03:07:32;;;;;;;1.72;1.45;;;;;;;10.25;55.38;101410.47;1747681;82;21108;-77
2022/06/17 03:09:58;;;;;;;2.95;1.60;;;;;;;10.28;55.40;101410.91;1748500;81;21066;-77
2022/06/17 03:12:30;;;;;;;2.25;1.67;;;;;;;10.31;55.46;101418.65;1748352;80;21112;-76
2022/06/17 03:15:13;;;;;;;1.90;1.50;;;;;;;10.34;55.55;101417.35;1749907;81;21580;-76
2022/06/17 03:17:44;;;;;;;2.25;1.40;;;;;;;10.38;55.67;101420.36;1748125;81;21022;-76
2022/06/17 03:20:21;;;;;;;1.87;1.70;;;;;;;10.43;55.71;101424.20;1741826;81;21135;-76
2022/06/17 03:22:51;;;;;;;3.25;1.50;;;;;;;10.47;55.75;101424.19;1750185;81;20880;-76
2022/06/17 03:25:26;;;;;;;1.57;1.45;;;;;;;10.49;55.85;101423.75;1749369;81;20954;-76
2022/06/17 03:28:01;;;;;;;1.75;1.65;;;;;;;10.54;55.93;101430.20;1750410;81;21018;-76
2022/06/17 03:30:44;;;;;;;2.98;1.47;;;;;;;10.60;56.08;101429.75;1726935;81;21066;-76
2022/06/17 03:33:19;;;;;;;2.33;1.62;;;;;;;10.68;56.17;101435.34;1740122;81;20978;-76
2022/06/17 03:35:49;;;;;;;3.60;1.92;;;;;;;10.77;56.27;101437.46;1737738;81;21125;-76
2022/06/17 03:38:39;;;;;;;2.90;1.47;;;;;;;10.87;56.36;101427.94;1743643;81;20981;-76
2022/06/17 03:41:25;;;;;;;3.08;1.60;;;;;;;10.97;56.49;101425.70;1723659;81;20899;-76
2022/06/17 03:44:10;;;;;;;3.20;1.80;;;;;;;11.09;56.51;101432.12;1746046;81;20951;-76
2022/06/17 03:46:43;;;;;;;1.50;1.40;;;;;;;11.21;56.65;101427.31;1729505;81;21513;-76
2022/06/17 03:49:26;;;;;;;2.25;1.62;;;;;;;11.33;56.74;101436.74;1750852;81;20938;-77
2022/06/17 03:52:00;;;;;;;2.45;1.85;;;;;;;11.42;56.81;101432.80;1749971;81;20985;-77
2022/06/17 03:54:27;;;;;;;2.12;1.40;;;;;;;11.53;56.90;101435.72;1750497;81;20935;-77
2022/06/17 03:56:54;;;;;;;2.00;1.62;;;;;;;11.65;56.98;101437.36;1750353;80;26462;-77
2022/06/17 03:59:25;;;;;;;3.52;1.82;;;;;;;11.76;57.10;101436.85;1750889;81;20887;-77
2022/06/17 04:01:59;;;;;;;4.75;1.90;;;;;;;11.87;57.18;101433.78;1750150;81;20985;-77
2022/06/17 04:04:34;;;;;;;2.30;1.50;;;;;;;12.01;57.26;101438.81;1750714;81;20883;-77
2022/06/17 04:07:01;;;;;;;1.95;1.55;;;;;;;12.23;57.42;101439.05;1750697;81;20903;-76
2022/06/17 04:09:37;;;;;;;4.30;1.98;;;;;;;12.71;57.63;101443.71;1750818;81;20955;-76
2022/06/17 04:12:07;;;;;;;5.67;2.08;;;;;;;13.15;57.65;101447.03;1730047;81;21416;-77
2022/06/17 04:15:00;;;;;;;2.08;1.57;;;;;;;13.55;57.53;101443.00;1745985;81;20910;-77
2022/06/17 04:17:43;;;;;;;3.20;1.65;;;;;;;13.81;57.42;101440.44;1750360;81;20926;-77
2022/06/17 04:20:40;;;;;;;2.77;1.65;;;;;;;14.01;57.37;101440.98;1750108;81;20911;-77
2022/06/17 04:23:22;;;;;;;4.47;1.37;;;;;;;14.14;57.33;101436.39;1720996;83;20931;-77
2022/06/17 04:26:12;;;;;;;2.12;1.67;;;;;;;14.27;57.40;101435.30;1747601;81;20938;-77
2022/06/17 04:28:52;;;;;;;3.87;1.65;;;;;;;14.41;57.38;101438.53;1750674;81;20954;-76
2022/06/17 04:31:23;;;;;;;3.25;1.70;;;;;;;14.55;57.35;101439.58;1746515;81;20946;-77
2022/06/17 04:33:56;;;;;;;2.22;1.50;;;;;;;14.61;57.36;101435.52;1751006;81;20914;-77
2022/06/17 04:36:37;;;;;;;2.55;1.80;;;;;;;14.67;57.38;101434.55;1709823;83;20918;-77
2022/06/17 04:39:26;;;;;;;1.52;1.42;;;;;;;14.77;57.49;101438.69;1739981;81;20937;-76
2022/06/17 04:41:57;;;;;;;2.77;1.90;;;;;;;14.90;57.46;101435.80;1735037;82;20918;-76
2022/06/17 04:44:23;;;;;;;3.27;1.70;;;;;;;15.05;57.56;101435.93;1741249;81;20963;-76
2022/06/17 04:47:07;;;;;;;1.90;1.70;;;;;;;15.17;57.54;101442.14;1730581;81;20942;-76
2022/06/17 04:49:38;;;;;;;4.08;1.80;;;;;;;15.30;57.59;101437.53;1734346;81;21340;-76
2022/06/17 04:52:10;;;;;;;4.35;2.10;;;;;;;15.44;57.62;101442.44;1733912;81;20966;-76
2022/06/17 04:54:38;;;;;;;2.12;1.90;;;;;;;15.61;57.64;101437.69;1725273;81;20978;-77
2022/06/17 04:57:05;;;;;;;3.05;1.70;;;;;;;15.82;57.74;101434.56;1728880;81;21775;-77
2022/06/17 04:59:41;;;;;;;2.33;1.50;;;;;;;16.11;57.80;101439.06;1743372;81;20946;-77
2022/06/17 05:02:20;;;;;;;2.58;1.60;;;;;;;16.59;57.92;101441.69;1742904;81;20974;-77
2022/06/17 05:04:52;;;;;;;4.75;1.67;;;;;;;17.20;57.99;101435.08;1720696;81;20970;-77
2022/06/17 05:07:18;;;;;;;5.25;1.55;;;;;;;17.94;57.89;101433.61;1747027;81;20946;-77
2022/06/17 05:10:05;;;;;;;4.40;2.05;;;;;;;18.56;57.66;101438.41;1730623;82;20917;-77
2022/06/17 05:12:37;;;;;;;3.90;1.72;;;;;;;19.12;57.38;101438.08;1718616;80;21018;-77
2022/06/17 05:15:09;;;;;;;2.95;1.52;;;;;;;19.81;57.36;101430.47;1744616;82;20971;-77
2022/06/17 05:17:41;;;;;;;4.90;1.57;;;;;;;20.39;57.10;101438.97;1729250;81;20944;-77
2022/06/17 05:20:12;;;;;;;2.30;1.60;;;;;;;20.92;56.81;101443.13;1732542;82;20949;-77
2022/06/17 05:22:44;;;;;;;4.72;1.62;;;;;;;21.45;56.76;101435.82;1726384;82;20953;-77
2022/06/17 05:25:21;;;;;;;5.05;1.87;;;;;;;22.04;56.51;101428.92;1720953;82;20900;-77
2022/06/17 05:27:47;;;;;;;;;;;;;;;22.59;56.29;101434.41;1734519;82;20944;-77
2022/06/17 05:30:14;;;;;;;6.55;1.90;;;;;;;23.29;55.56;101435.86;1712943;82;20147;-77
2022/06/17 05:32:53;;;;;;;5.58;1.70;;;;;;;23.29;55.56;101435.86;1729317;82;20897;-79
2022/06/17 05:35:21;;;;;;;4.05;1.70;;;;;;;23.42;55.39;101441.66;1704306;84;20944;-78
2022/06/17 05:37:48;;;;;;;4.97;1.45;;;;;;;23.74;55.49;101439.86;1715419;82;20900;-77
2022/06/17 05:40:16;;;;;;;3.08;1.77;;;;;;;24.08;55.17;101437.86;1715979;81;21015;-77
2022/06/17 05:42:45;;;;;;;7.28;1.92;;;;;;;24.17;54.71;101435.99;1715824;81;21087;-78
2022/06/17 05:45:20;;;;;;;3.02;1.85;;;;;;;24.35;54.55;101440.69;1723859;81;21036;-78
2022/06/17 05:47:48;;;;;;;3.55;1.75;;;;;;;24.49;54.22;101435.38;1718842;82;20956;-79
2022/06/17 05:50:16;;;;;;;11.95;1.80;;;;;;;24.71;54.11;101438.41;1731285;81;21054;-79
2022/06/17 05:52:51;;;;;;;4.67;2.12;;;;;;;24.98;53.81;101445.09;1730613;82;21051;-78
2022/06/17 05:55:19;;;;;;;3.10;1.80;;;;;;;25.22;53.73;101439.20;1729095;82;21028;-76
2022/06/17 05:57:45;;;;;;;3.58;1.60;;;;;;;25.28;53.27;101448.92;1708685;81;21074;-77
2022/06/17 06:00:13;;;;;;;3.45;1.98;;;;;;;25.23;53.01;101441.75;1708913;82;20979;-78
2022/06/17 06:02:40;;;;;;;3.27;2.08;;;;;;;25.27;53.31;101449.02;1718135;81;20869;-77
2022/06/17 06:05:08;;;;;;;4.28;1.90;;;;;;;25.51;52.87;101452.70;1709966;82;21452;-77
2022/06/17 06:07:38;;;;;;;3.58;1.67;;;;;;;25.85;52.84;101447.87;1735527;81;20956;-76
2022/06/17 06:10:07;;;;;;;3.77;1.95;;;;;;;26.15;52.28;101448.91;1709067;82;20920;-75
2022/06/17 06:15:21;;;;;;;4.70;1.57;;;;;;;26.55;51.78;101451.84;1715637;81;20908;-75
2022/06/17 06:17:48;;;;;;;3.20;1.60;;;;;;;26.82;51.95;101458.83;1733410;82;20921;-74
2022/06/17 06:20:14;;;;;;;;;;;;;;;26.92;51.52;101466.03;1729119;82;20906;-74
2022/06/17 06:22:42;;;;;;;5.00;1.87;;;;;;;26.99;50.41;101468.66;1709101;81;20096;-74
2022/06/17 06:25:11;;;;;;;4.70;1.87;;;;;;;27.03;51.17;101467.45;1717005;81;21524;-74
2022/06/17 06:27:38;;;;;;;6.47;2.25;;;;;;;27.15;50.69;101464.88;1712059;81;20937;-75
2022/06/17 06:30:05;;;;;;;8.35;1.98;;;;;;;27.26;50.62;101476.90;1719609;81;20957;-75
2022/06/17 06:32:32;;;;;;;3.77;2.00;;;;;;;27.27;50.05;101480.77;1719489;81;20902;-73
2022/06/17 06:34:58;;;;;;;3.40;1.90;;;;;;;27.23;49.51;101473.14;1722466;81;28078;-73
2022/06/17 06:37:25;;;;;;;5.65;1.60;;;;;;;27.60;49.78;101476.63;1737779;80;20954;-73
2022/06/17 06:39:51;;;;;;;4.05;1.62;;;;;;;28.11;49.03;101471.84;1744667;80;20871;-73
2022/06/17 06:42:19;;;;;;;3.67;1.62;;;;;;;28.55;49.14;101473.78;1728929;81;25033;-73
2022/06/17 06:44:45;;;;;;;5.03;1.90;;;;;;;28.99;48.86;101477.42;1719026;81;20933;-74
2022/06/17 06:47:12;;;;;;;2.90;1.70;;;;;;;29.32;48.17;101474.68;1720135;81;20944;-74
2022/06/17 06:49:39;;;;;;;7.12;1.60;;;;;;;29.45;47.78;101481.23;1729802;81;20904;-74
2022/06/17 06:52:05;;;;;;;;;;;;;;;29.82;47.70;101488.34;1727315;81;20917;-76
2022/06/17 06:54:34;;;;;;;3.87;1.62;;;;;;;30.30;46.46;101486.03;1730120;81;20090;-72
2022/06/17 06:57:00;;;;;;;;;;;;;;;30.66;46.86;101487.05;1730743;81;20948;-72
2022/06/17 06:59:26;;;;;;;5.45;1.62;;;;;;;30.87;44.34;101487.81;1720466;81;21124;-73
2022/06/17 07:01:53;;;;;;;4.30;1.47;;;;;;;31.04;46.19;101484.50;1715263;81;20919;-73
2022/06/17 07:04:19;;;;;;;;;;;;;;;31.31;45.52;101488.38;1720214;81;21299;-72
2022/06/17 07:06:48;;;;;;;3.72;1.32;;;;;;;31.48;42.86;101488.55;1710434;81;20362;-72
2022/06/17 07:09:15;;;;;;;;;;;;;;;31.60;45.26;101490.11;1723957;81;21325;-71
2022/06/17 07:11:44;;;;;;;3.00;1.27;;;;;;;31.96;45.07;101481.05;1719643;81;20181;-71
2022/06/17 07:14:10;;;;;;;3.70;2.05;;;;;;;32.23;45.02;101485.69;1716428;81;21043;-71
2022/06/17 07:16:37;;;;;;;3.45;1.30;;;;;;;32.33;44.53;101495.01;1718058;81;22255;-72
2022/06/17 07:19:07;;;;;;;1.67;1.20;;;;;;;32.24;43.54;101492.20;1729518;80;21488;-72
2022/06/17 07:21:32;;;;;;;2.45;1.52;;;;;;;32.16;43.22;101498.77;1762854;79;21025;-71
2022/06/17 07:23:58;;;;;;;3.77;1.57;;;;;;;31.82;42.49;101494.84;1745917;80;21557;-71
2022/06/17 07:26:25;;;;;;;3.95;1.02;;;;;;;31.43;42.24;101496.63;1748005;80;21333;-71
2022/06/17 07:28:55;;;;;;;3.50;1.90;;;;;;;31.33;42.02;101493.94;1733285;80;21046;-71
2022/06/17 07:31:22;;;;;;;2.35;1.30;;;;;;;31.16;41.09;101499.48;1739786;80;21069;-71
2022/06/17 07:33:49;;;;;;;4.83;1.27;;;;;;;30.99;40.82;101492.56;1740860;80;21042;-76
2022/06/17 07:41:59;;;;;;;3.27;1.60;;;;;;;30.06;39.74;101503.30;1733478;80;21574;-72
2022/06/17 07:44:25;;;;;;;2.47;1.35;;;;;;;29.72;38.94;101510.56;1738822;80;28292;-72
2022/06/17 07:46:51;;;;;;;;;;;;;;;29.35;39.00;101513.55;1738116;80;21317;-72
2022/06/17 07:49:18;;;;;;;;;;;;;;;29.18;38.85;101514.06;1744875;80;20463;-72
2022/06/17 07:51:44;;;;;;;1.55;1.40;;;;;;;28.93;38.70;101521.84;1746030;80;20541;-72
2022/06/17 07:54:10;;;;;;;2.62;1.82;;;;;;;28.42;38.53;101524.08;1743093;81;21109;-72
2022/06/17 07:56:39;;;;;;;2.55;1.42;;;;;;;28.02;38.80;101523.09;1735717;80;21029;-72
2022/06/17 07:59:05;;;;;;;5.62;1.52;;;;;;;27.85;38.79;101517.70;1741647;80;21021;-71
2022/06/17 08:01:31;;;;;;;4.28;1.30;;;;;;;28.03;38.78;101502.67;1742325;80;21136;-72
2022/06/17 08:04:01;;;;;;;3.35;1.37;;;;;;;28.11;38.51;101510.41;1744845;80;21328;-71
2022/06/17 08:06:27;;;;;;;2.62;1.25;;;;;;;28.06;38.16;101517.91;1744812;80;21061;-71
2022/06/17 08:09:03;;;;;;;3.60;1.50;;;;;;;27.59;38.01;101516.11;1749422;80;20876;-71
2022/06/17 08:11:32;;;;;;;3.00;1.72;;;;;;;27.25;38.13;101514.56;1741699;80;21839;-71
2022/06/17 08:13:58;;;;;;;2.50;1.42;;;;;;;27.17;38.14;101509.42;1747229;80;28008;-71
2022/06/17 08:16:25;;;;;;;4.00;1.50;;;;;;;27.05;38.26;101505.84;1738824;80;20919;-71
2022/06/17 08:18:51;;;;;;;5.42;1.47;;;;;;;27.21;38.35;101508.25;1750379;80;20866;-71
2022/06/17 08:21:18;;;;;;;3.20;1.22;;;;;;;27.48;38.32;101501.43;1738948;80;20856;-71
2022/06/17 08:23:46;;;;;;;2.60;1.42;;;;;;;27.34;37.85;101512.58;1743280;80;20956;-71
2022/06/17 08:26:12;;;;;;;3.50;1.10;;;;;;;27.15;37.96;101510.86;1740476;80;20886;-71
2022/06/17 08:28:39;;;;;;;3.50;1.50;;;;;;;27.04;38.03;101512.95;1738446;80;20910;-71
2022/06/17 08:31:05;;;;;;;4.35;1.40;;;;;;;27.10;38.03;101505.51;1745084;80;20957;-71
2022/06/17 08:33:32;;;;;;;18.57;2.10;;;;;;;27.16;37.95;101501.94;1739230;80;28723;-71
2022/06/17 08:36:04;;;;;;;4.12;1.40;;;;;;;27.26;37.89;101503.45;1738542;80;20945;-71
2022/06/17 08:38:34;;;;;;;8.78;1.98;;;;;;;27.39;37.80;101507.41;1731213;80;20951;-72
2022/06/17 08:41:09;;;;;;;2.60;1.30;;;;;;;27.11;37.61;101510.71;1739312;80;20934;-71
2022/06/17 08:44:00;;;;;;;5.08;1.40;;;;;;;26.87;37.50;101511.11;1736838;80;20911;-71
2022/06/17 08:46:34;;;;;;;2.10;1.20;;;;;;;26.73;37.66;101521.36;1729579;80;20933;-71
2022/06/17 08:49:24;;;;;;;3.67;1.32;;;;;;;26.76;37.39;101527.78;1733908;80;20902;-71
2022/06/17 08:52:19;;;;;;;2.85;1.20;;;;;;;26.88;37.74;101523.42;1726879;80;20906;-72
2022/06/17 08:55:06;;;;;;;5.55;1.00;;;;;;;27.17;36.30;101532.00;1731986;80;20898;-71
2022/06/17 08:58:06;;;;;;;2.75;1.30;;;;;;;27.21;37.28;101525.51;1732224;80;20910;-71
2022/06/17 09:00:50;;;;;;;4.62;1.30;;;;;;;26.98;36.85;101526.69;1743894;80;21367;-71
2022/06/17 09:03:24;;;;;;;;;;;;;;;26.96;37.30;101531.73;1744120;80;20929;-71
2022/06/17 09:06:25;;;;;;;1.55;1.15;;;;;;;27.09;37.23;101523.72;1731621;80;20122;-71
2022/06/17 09:09:19;;;;;;;1.80;1.10;;;;;;;27.25;37.41;101530.49;1731307;80;20938;-71
2022/06/17 09:11:50;;;;;;;1.25;1.00;;;;;;;27.37;36.88;101531.42;1735197;80;20965;-71
2022/06/17 09:14:46;;;;;;;5.67;1.00;;;;;;;27.26;37.05;101530.02;1736516;80;20945;-71
2022/06/17 09:17:28;;;;;;;;;;;;;;;27.33;37.04;101527.30;1733722;80;21094;-71
2022/06/17 09:20:00;;;;;;;1.30;0.90;;;;;;;27.13;36.72;101531.84;1716435;81;20204;-71
2022/06/17 09:22:49;;;;;;;2.87;0.90;;;;;;;27.10;36.94;101520.11;1712206;81;20991;-71
2022/06/17 09:25:23;;;;;;;2.65;1.20;;;;;;;26.82;36.56;101533.14;1713123;81;21906;-71
2022/06/17 09:27:57;;;;;;;1.40;0.98;;;;;;;26.59;36.67;101536.90;1712476;81;21538;-71
2022/06/17 09:30:35;;;;;;;1.95;1.00;;;;;;;26.32;36.34;101537.47;1710235;81;21106;-71
2022/06/17 09:33:27;;;;;;;8.73;1.20;;;;;;;26.09;36.41;101525.72;1719294;81;20968;-71
2022/06/17 09:36:08;;;;;;;4.72;1.40;;;;;;;25.81;36.14;101525.39;1708738;81;21030;-71
2022/06/17 09:39:01;;;;;;;2.90;1.40;;;;;;;25.48;36.49;101532.83;1718222;81;20931;-71
2022/06/17 09:41:49;;;;;;;2.12;1.22;;;;;;;25.44;36.65;101530.88;1719385;81;20979;-71
2022/06/17 09:44:36;;;;;;;3.30;1.50;;;;;;;25.48;36.54;101532.34;1712426;81;21111;-71
2022/06/17 09:47:19;;;;;;;2.02;0.90;;;;;;;25.37;36.61;101532.21;1713831;81;21046;-71
2022/06/17 09:50:00;;;;;;;1.98;0.90;;;;;;;25.32;36.61;101519.73;1719837;81;21037;-71
2022/06/17 09:52:31;;;;;;;1.17;0.80;;;;;;;25.21;36.60;101527.03;1718978;81;21666;-71
2022/06/17 09:55:16;;;;;;;2.05;1.10;;;;;;;25.11;36.51;101525.91;1713843;81;21873;-71
2022/06/17 09:57:53;;;;;;;2.17;0.70;;;;;;;25.11;36.51;101525.91;1709013;81;21416;-71
2022/06/17 10:00:25;;;;;;;1.60;0.93;;;;;;;25.03;36.46;101514.94;1719360;81;20853;-71
2022/06/17 10:03:13;;;;;;;3.87;1.45;;;;;;;24.90;36.56;101510.88;1710941;81;20904;-71
2022/06/17 10:05:48;;;;;;;1.60;0.80;;;;;;;24.92;36.69;101530.16;1710506;81;20940;-71
2022/06/17 10:08:25;;;;;;;2.98;1.05;;;;;;;24.94;36.76;101532.70;1717083;81;20940;-71
2022/06/17 10:11:36;;;;;;;2.33;1.00;;;;;;;24.96;36.77;101525.53;1706784;81;20956;-71
2022/06/17 10:14:44;;;;;;;2.58;1.00;;;;;;;24.96;36.89;101530.34;1718687;81;21359;-71
2022/06/17 10:20:26;;;;;;;1.57;1.02;;;;;;;24.93;36.97;101530.53;1711710;81;21433;-71
2022/06/17 10:23:24;;;;;;;;;;;;;;;24.96;37.00;101531.66;1719516;81;21496;-70
2022/06/17 10:25:59;;;;;;;1.77;0.90;;;;;;;25.00;37.02;101521.74;1711232;81;20418;-70
2022/06/17 10:28:46;;;;;;;1.57;0.90;;;;;;;24.92;36.92;101527.51;1712890;81;21389;-70
2022/06/17 10:31:38;;;;;;;3.90;1.15;;;;;;;24.72;36.93;101537.12;1725365;81;21007;-70
2022/06/17 10:34:25;;;;;;;2.02;1.05;;;;;;;24.72;36.93;101537.12;1710814;81;20999;-70
2022/06/17 10:36:56;;;;;;;4.55;1.30;;;;;;;24.54;37.14;101544.84;1723398;81;21454;-70
2022/06/17 10:39:26;;;;;;;2.05;1.22;;;;;;;24.46;37.24;101541.80;1719146;80;21550;-70
2022/06/17 10:41:53;;;;;;;1.72;1.15;;;;;;;24.43;37.35;101542.86;1716508;81;21421;-71
2022/06/17 10:44:26;;;;;;;3.42;1.42;;;;;;;24.48;37.42;101534.16;1727364;80;21587;-71
2022/06/17 10:47:20;;;;;;;1.62;0.82;;;;;;;24.60;37.50;101534.75;1687474;82;21051;-71
2022/06/17 10:50:06;;;;;;;2.50;0.80;;;;;;;24.68;37.44;101524.56;1725036;80;21525;-71
2022/06/17 10:52:42;;;;;;;;;;;;;;;24.74;37.34;101527.30;1706102;81;21135;-71
2022/06/17 10:55:26;;;;;;;1.37;1.10;;;;;;;24.74;37.32;101530.80;1617401;80;9999697;-72
2022/06/17 10:58:23;;;;;;;5.12;1.15;;;;;;;24.74;37.32;101537.89;1711232;81;21493;-74
2022/06/17 11:01:15;;;;;;;4.25;1.02;;;;;;;24.73;37.46;101534.86;1708930;81;22138;-74
2022/06/17 11:03:45;;;;;;;5.00;1.17;;;;;;;24.70;37.48;101534.58;1728573;80;21151;-74
2022/06/17 11:06:25;;;;;;;2.75;0.88;;;;;;;24.76;37.56;101530.70;1701857;82;21406;-71
2022/06/17 11:09:01;;;;;;;1.10;1.00;;;;;;;24.78;37.42;101531.94;1708812;81;21497;-71
2022/06/17 11:14:48;;;;;;;1.45;0.90;;;;;;;24.58;37.53;101527.84;1716046;81;21064;-71
2022/06/17 11:17:30;;;;;;;1.77;0.95;;;;;;;24.52;37.66;101526.42;1711619;81;21547;-72
2022/06/17 11:20:04;;;;;;;1.55;0.90;;;;;;;24.63;37.76;101525.31;1721886;81;21610;-71
2022/06/17 11:22:36;;;;;;;1.72;0.90;;;;;;;24.67;37.63;101528.14;1730065;81;20993;-71
2022/06/17 11:25:33;;;;;;;1.15;0.80;;;;;;;24.59;37.64;101521.14;1712804;81;21430;-71
2022/06/17 11:28:11;;;;;;;;;;;;;;;24.44;37.63;101515.45;1730320;81;21529;-71
2022/06/17 11:31:00;;;;;;;1.95;1.05;;;;;;;24.35;37.83;101517.34;1727219;80;20447;-71
2022/06/17 11:33:41;;;;;;;4.33;1.30;;;;;;;24.46;37.82;101511.39;1728918;81;21014;-75
2022/06/17 11:36:36;;;;;;;3.37;1.10;;;;;;;24.55;37.85;101506.41;1708854;81;21419;-75
2022/06/17 11:39:37;;;;;;;1.87;1.05;;;;;;;24.50;37.82;101509.80;1738563;80;21457;-75
2022/06/17 11:42:19;;;;;;;3.83;0.93;;;;;;;24.56;37.86;101508.11;1728063;81;21089;-75
2022/06/17 11:45:02;;;;;;;3.72;0.98;;;;;;;24.65;37.88;101511.99;1734650;81;21026;-75
2022/06/17 11:47:32;;;;;;;1.52;0.93;;;;;;;24.65;37.85;101512.84;1722068;80;21061;-75
2022/06/17 11:50:23;;;;;;;3.62;0.80;;;;;;;24.64;37.84;101513.78;1729570;80;21053;-74
2022/06/17 11:52:52;;;;;;;1.45;1.10;;;;;;;24.60;37.80;101510.09;1720032;81;20855;-74
2022/06/17 11:55:29;;;;;;;2.65;1.00;;;;;;;24.55;37.70;101507.73;1709535;82;20942;-74
2022/06/17 11:57:55;;;;;;;1.73;1.10;;;;;;;24.48;37.79;101491.00;1741519;80;21131;-75
2022/06/17 12:00:46;;;;;;;1.55;0.82;;;;;;;24.49;37.81;101499.31;1731300;81;467201;-75
2022/06/17 12:03:16;;;;;;;1.45;0.80;;;;;;;24.54;37.85;101496.77;1733858;80;21390;-73
2022/06/17 12:05:57;;;;;;;3.77;2.65;;;;;;;24.62;37.87;101492.34;1713791;81;20933;-73
2022/06/17 12:08:35;;;;;;;4.42;2.10;;;;;;;24.65;37.90;101490.83;1736721;80;20910;-73
2022/06/17 12:11:10;;;;;;;9.90;8.08;;;;;;;24.63;37.88;101493.56;1736424;81;20943;-73
2022/06/17 12:13:49;;;;;;;4.58;1.52;;;;;;;24.58;37.92;101492.14;1740345;81;20938;-73
2022/06/17 12:16:26;;;;;;;2.42;1.10;;;;;;;24.52;37.90;101483.26;1719878;81;20986;-73
2022/06/17 12:18:56;;;;;;;5.08;2.35;;;;;;;24.54;37.91;101482.22;1735013;81;21387;-73